Terminal Aerodrome Forecast
Issued by NWS

Home | Current Version | Previous Version | Text Only | Print | Product List | Glossary On
Versions: 1 2 3 4 5 6 7 8 9 10 11 12 13 14 15 16 17 18 19
367
FTUS46 KSTO 220638 AAB
TAFRBL
TAF AMD
KRBL 220638Z 2207/2306 30005KT P6SM BKN250
      TEMPO 2207/2211 5SM BR
     FM221800 32005KT P6SM SCT250=

USA.gov is the U.S. government's official web portal to all federal, state and local government web resources and services.